Time;durP1;ratioP1;P1;durP2;ratioP2;P2;SDS_P1;SDS_P2;PMS_P1;PMS_P2;Temp;Humidity;BMP_temperature;BMP_pressure;BME280_temperature;BME280_humidity;BME280_pressure;Samples;Min_cycle;Max_cycle;Signal;HPM_P1;HPM_P2
2024/01/07 00:01:57;;;;;;;41.80;24.37;;;;;;;;;;5036892;28;20600;-66
2024/01/07 00:04:23;;;;;;;42.07;24.83;;;;;;;;;;5057582;28;20186;-66
2024/01/07 00:06:49;;;;;;;49.43;24.13;;;;;;;;;;5057520;28;20198;-65
2024/01/07 00:09:16;;;;;;;46.47;24.00;;;;;;;;;;5039805;28;20206;-65
2024/01/07 00:11:42;;;;;;;41.07;24.10;;;;;;;;;;5057966;28;20201;-65
2024/01/07 00:14:08;;;;;;;41.47;22.90;;;;;;;;;;5057710;28;20179;-64
2024/01/07 00:16:34;;;;;;;44.13;23.93;;;;;;;;;;5057361;28;20229;-64
2024/01/07 00:19:00;;;;;;;44.93;24.23;;;;;;;;;;5057713;28;20237;-66
2024/01/07 00:21:26;;;;;;;44.43;23.33;;;;;;;;;;5057287;28;20182;-66
2024/01/07 00:23:52;;;;;;;51.43;29.70;;;;;;;;;;5057075;28;20261;-66
2024/01/07 00:26:18;;;;;;;47.73;27.70;;;;;;;;;;5056962;28;20279;-67
2024/01/07 00:28:44;;;;;;;46.50;25.80;;;;;;;;;;5057188;28;20198;-67
2024/01/07 00:31:12;;;;;;;43.10;24.60;;;;;;;;;;5038863;28;20179;-66
2024/01/07 00:33:38;;;;;;;36.83;21.17;;;;;;;;;;5056798;28;20221;-66
2024/01/07 00:36:05;;;;;;;38.53;22.87;;;;;;;;;;5056715;28;20680;-67
2024/01/07 00:38:30;;;;;;;33.70;21.33;;;;;;;;;;5056823;28;20174;-66
2024/01/07 00:40:56;;;;;;;32.80;19.10;;;;;;;;;;5057147;28;20178;-66
2024/01/07 00:43:22;;;;;;;29.50;17.83;;;;;;;;;;5057200;28;20171;-66
2024/01/07 00:45:48;;;;;;;25.33;16.20;;;;;;;;;;5056449;28;20320;-66
2024/01/07 00:48:15;;;;;;;22.30;13.57;;;;;;;;;;5039155;28;20210;-66
2024/01/07 00:50:41;;;;;;;24.03;14.73;;;;;;;;;;5056801;28;20206;-64
2024/01/07 00:53:07;;;;;;;22.93;14.70;;;;;;;;;;5056975;28;20181;-65
2024/01/07 00:55:35;;;;;;;23.37;14.27;;;;;;;;;;5039075;28;20199;-64
2024/01/07 00:58:01;;;;;;;25.10;15.33;;;;;;;;;;5056978;28;20232;-65
2024/01/07 01:00:28;;;;;;;20.40;14.10;;;;;;;;;;5056575;28;20186;-65
2024/01/07 01:02:54;;;;;;;23.97;16.53;;;;;;;;;;5056969;28;20178;-65
2024/01/07 01:05:20;;;;;;;23.83;15.77;;;;;;;;;;5056338;28;20676;-65
2024/01/07 01:07:46;;;;;;;25.27;16.87;;;;;;;;;;5056498;28;20232;-65
2024/01/07 01:10:14;;;;;;;23.13;15.93;;;;;;;;;;5056189;28;20260;-65
2024/01/07 01:12:46;;;;;;;23.17;14.83;;;;;;;;;;5056701;28;20179;-64
2024/01/07 01:15:12;;;;;;;14.87;9.43;;;;;;;;;;5056358;28;20225;-68
2024/01/07 01:17:38;;;;;;;19.10;11.33;;;;;;;;;;5056705;28;20550;-69
2024/01/07 01:20:05;;;;;;;18.37;12.60;;;;;;;;;;5056735;28;20231;-68
2024/01/07 01:22:30;;;;;;;17.33;12.43;;;;;;;;;;5038589;28;20268;-68
2024/01/07 01:24:56;;;;;;;16.97;12.27;;;;;;;;;;5056295;28;20174;-69
2024/01/07 01:27:22;;;;;;;20.07;13.33;;;;;;;;;;5056966;28;20166;-68
2024/01/07 01:29:48;;;;;;;22.27;14.47;;;;;;;;;;5056286;28;20202;-68
2024/01/07 01:32:14;;;;;;;22.23;14.23;;;;;;;;;;5056774;28;20175;-70
2024/01/07 01:34:41;;;;;;;28.03;16.47;;;;;;;;;;5057202;28;20258;-69
2024/01/07 01:37:08;;;;;;;23.57;14.87;;;;;;;;;;5056727;28;20614;-69
2024/01/07 01:39:35;;;;;;;25.17;15.70;;;;;;;;;;5056470;28;20206;-69
2024/01/07 01:42:01;;;;;;;24.77;15.80;;;;;;;;;;5055762;28;20605;-70
2024/01/07 01:44:27;;;;;;;19.73;14.60;;;;;;;;;;5056056;28;20281;-68
2024/01/07 01:46:54;;;;;;;22.63;16.13;;;;;;;;;;5055837;28;20432;-69
2024/01/07 01:49:20;;;;;;;24.90;15.73;;;;;;;;;;5056092;28;20484;-69
2024/01/07 01:51:47;;;;;;;21.60;14.10;;;;;;;;;;5038230;28;20551;-68
2024/01/07 01:54:13;;;;;;;24.00;15.17;;;;;;;;;;5037666;28;20185;-70
2024/01/07 01:56:39;;;;;;;21.37;14.77;;;;;;;;;;5056032;28;20285;-68
2024/01/07 01:59:05;;;;;;;22.03;15.33;;;;;;;;;;5056969;28;20408;-69
2024/01/07 02:01:31;;;;;;;22.13;14.73;;;;;;;;;;5056244;28;20547;-69
2024/01/07 02:03:57;;;;;;;23.00;15.87;;;;;;;;;;5055603;28;20179;-68
2024/01/07 02:06:24;;;;;;;24.30;15.63;;;;;;;;;;5038061;28;20433;-69
2024/01/07 02:08:50;;;;;;;27.57;16.67;;;;;;;;;;5055330;28;20199;-69
2024/01/07 02:11:20;;;;;;;23.20;16.80;;;;;;;;;;5055557;28;20178;-69
2024/01/07 02:13:46;;;;;;;26.10;16.60;;;;;;;;;;5055151;28;20202;-69
2024/01/07 02:16:12;;;;;;;19.40;13.37;;;;;;;;;;5037415;28;20198;-67
2024/01/07 02:18:39;;;;;;;26.53;16.97;;;;;;;;;;5055310;28;20679;-70
2024/01/07 02:21:04;;;;;;;30.33;18.63;;;;;;;;;;5055243;28;20225;-70
2024/01/07 02:23:30;;;;;;;32.33;19.53;;;;;;;;;;5037551;28;20597;-69
2024/01/07 02:25:56;;;;;;;33.43;20.50;;;;;;;;;;5053607;28;20214;-68
2024/01/07 02:28:22;;;;;;;35.53;20.47;;;;;;;;;;5055095;28;20185;-67
2024/01/07 02:30:48;;;;;;;20.80;11.90;;;;;;;;;;5055297;28;20206;-69
2024/01/07 02:33:14;;;;;;;32.30;20.47;;;;;;;;;;5054842;28;20185;-68
2024/01/07 02:35:40;;;;;;;30.50;19.47;;;;;;;;;;5054821;28;21019;-70
2024/01/07 02:38:06;;;;;;;30.33;17.50;;;;;;;;;;5055093;28;20210;-69
2024/01/07 02:40:32;;;;;;;31.47;17.00;;;;;;;;;;5054851;28;20182;-69
2024/01/07 02:42:58;;;;;;;35.23;21.20;;;;;;;;;;5054474;28;20186;-67
2024/01/07 02:45:24;;;;;;;34.23;20.90;;;;;;;;;;5054512;28;20692;-68
2024/01/07 02:47:50;;;;;;;34.30;20.27;;;;;;;;;;5055284;28;20812;-69
2024/01/07 02:50:16;;;;;;;32.07;19.93;;;;;;;;;;5054458;28;20245;-69
2024/01/07 02:52:43;;;;;;;26.57;15.83;;;;;;;;;;5054559;28;20778;-69
2024/01/07 02:55:09;;;;;;;36.07;21.70;;;;;;;;;;5036729;28;20281;-68
2024/01/07 02:57:35;;;;;;;30.67;19.53;;;;;;;;;;5055454;28;20293;-69
2024/01/07 03:00:02;;;;;;;32.90;21.03;;;;;;;;;;5036733;28;20675;-69
2024/01/07 03:02:28;;;;;;;32.20;18.97;;;;;;;;;;5055765;28;20179;-68
2024/01/07 03:04:54;;;;;;;26.97;16.03;;;;;;;;;;5054999;28;20405;-69
2024/01/07 03:07:20;;;;;;;36.20;21.47;;;;;;;;;;5054628;28;20560;-69
2024/01/07 03:09:46;;;;;;;36.63;21.77;;;;;;;;;;5036331;28;20794;-69
2024/01/07 03:12:12;;;;;;;32.63;21.67;;;;;;;;;;5054120;28;20210;-68
2024/01/07 03:14:38;;;;;;;32.33;21.20;;;;;;;;;;5036895;28;20179;-69
2024/01/07 03:17:04;;;;;;;35.70;21.27;;;;;;;;;;5053787;28;20225;-69
2024/01/07 03:19:30;;;;;;;35.80;23.43;;;;;;;;;;5036114;28;20186;-75
2024/01/07 03:21:55;;;;;;;36.83;22.03;;;;;;;;;;5054267;28;20182;-70
2024/01/07 03:24:21;;;;;;;36.60;22.43;;;;;;;;;;5053782;28;20191;-67
2024/01/07 03:26:47;;;;;;;32.20;20.40;;;;;;;;;;5054018;28;20218;-69
2024/01/07 03:29:13;;;;;;;33.20;22.30;;;;;;;;;;5035746;28;20206;-69
2024/01/07 03:31:39;;;;;;;34.70;22.00;;;;;;;;;;5053992;28;20170;-69
2024/01/07 03:34:05;;;;;;;30.67;21.57;;;;;;;;;;5053605;28;20205;-69
2024/01/07 03:36:31;;;;;;;34.30;21.43;;;;;;;;;;5035494;28;20203;-69
2024/01/07 03:38:57;;;;;;;24.90;15.80;;;;;;;;;;5054040;28;20186;-68
2024/01/07 03:41:23;;;;;;;28.03;19.00;;;;;;;;;;5053502;28;20190;-69
2024/01/07 03:43:49;;;;;;;26.13;16.33;;;;;;;;;;5035456;28;20236;-69
2024/01/07 03:46:16;;;;;;;24.77;17.97;;;;;;;;;;5053155;28;20198;-69
2024/01/07 03:48:42;;;;;;;23.53;17.23;;;;;;;;;;5053307;28;20712;-70
2024/01/07 03:51:09;;;;;;;24.00;15.07;;;;;;;;;;5035516;28;20178;-69
2024/01/07 03:53:35;;;;;;;25.33;16.37;;;;;;;;;;5053798;28;20409;-69
2024/01/07 03:56:01;;;;;;;23.03;14.77;;;;;;;;;;5035671;28;20205;-68
2024/01/07 03:58:27;;;;;;;22.63;16.33;;;;;;;;;;5053779;28;20598;-68
2024/01/07 04:00:53;;;;;;;27.00;17.93;;;;;;;;;;5053467;28;20412;-68
2024/01/07 04:03:19;;;;;;;18.57;13.43;;;;;;;;;;5053424;28;20229;-68
2024/01/07 04:05:45;;;;;;;25.50;18.03;;;;;;;;;;5053344;28;20226;-69
2024/01/07 04:08:11;;;;;;;19.53;13.40;;;;;;;;;;5054022;28;20184;-67
2024/01/07 04:10:37;;;;;;;27.23;18.90;;;;;;;;;;5035299;28;20461;-68
2024/01/07 04:13:04;;;;;;;24.83;15.77;;;;;;;;;;5039690;28;20421;-69
2024/01/07 04:15:30;;;;;;;19.80;14.60;;;;;;;;;;5057046;28;20198;-69
2024/01/07 04:17:56;;;;;;;23.17;16.87;;;;;;;;;;5053712;28;20431;-68
2024/01/07 04:20:22;;;;;;;16.83;13.17;;;;;;;;;;5035359;28;20421;-69
2024/01/07 04:22:48;;;;;;;20.33;14.80;;;;;;;;;;5035326;28;20185;-69
2024/01/07 04:25:14;;;;;;;18.77;12.20;;;;;;;;;;5052443;28;20452;-68
2024/01/07 04:27:40;;;;;;;21.47;15.87;;;;;;;;;;5053480;28;20393;-68
2024/01/07 04:30:06;;;;;;;22.77;15.20;;;;;;;;;;5052616;28;20202;-68
2024/01/07 04:32:32;;;;;;;19.43;14.27;;;;;;;;;;5053240;28;20217;-69
2024/01/07 04:34:58;;;;;;;19.03;14.70;;;;;;;;;;5035727;28;20420;-68
2024/01/07 04:37:25;;;;;;;20.10;13.97;;;;;;;;;;5052914;28;20421;-67
2024/01/07 04:39:51;;;;;;;21.13;14.57;;;;;;;;;;5053237;28;20187;-68
2024/01/07 04:42:20;;;;;;;20.67;14.73;;;;;;;;;;5034729;28;20185;-68
2024/01/07 04:44:46;;;;;;;19.73;13.27;;;;;;;;;;5052666;28;20261;-69
2024/01/07 04:47:28;;;;;;;18.70;14.33;;;;;;;;;;5052588;28;20463;-69
2024/01/07 04:49:54;;;;;;;20.87;15.77;;;;;;;;;;5055316;28;20202;-68
2024/01/07 04:52:20;;;;;;;19.27;15.10;;;;;;;;;;5056667;28;20178;-69
2024/01/07 04:54:46;;;;;;;22.57;16.17;;;;;;;;;;5057911;28;20401;-69
2024/01/07 04:57:12;;;;;;;23.20;14.80;;;;;;;;;;5038425;28;20648;-68
2024/01/07 04:59:38;;;;;;;18.83;14.10;;;;;;;;;;5056691;28;20185;-68
2024/01/07 05:02:04;;;;;;;20.30;13.90;;;;;;;;;;5038550;28;20181;-68
2024/01/07 05:04:30;;;;;;;19.90;14.73;;;;;;;;;;5056255;28;20671;-68
2024/01/07 05:06:56;;;;;;;20.30;14.67;;;;;;;;;;5038297;28;20650;-68
2024/01/07 05:09:22;;;;;;;19.07;14.40;;;;;;;;;;5039773;28;20663;-67
2024/01/07 05:11:48;;;;;;;20.47;14.47;;;;;;;;;;5038229;28;20269;-69
2024/01/07 05:14:14;;;;;;;18.07;14.50;;;;;;;;;;5056405;28;20171;-68
2024/01/07 05:16:40;;;;;;;19.43;11.10;;;;;;;;;;5056394;28;20226;-68
2024/01/07 05:19:06;;;;;;;25.67;15.93;;;;;;;;;;5038068;28;20182;-70
2024/01/07 05:21:32;;;;;;;24.17;16.00;;;;;;;;;;5056847;28;20265;-69
2024/01/07 05:23:58;;;;;;;21.23;14.90;;;;;;;;;;5056319;28;20179;-67
2024/01/07 05:26:23;;;;;;;20.77;15.00;;;;;;;;;;5037586;28;20224;-66
2024/01/07 05:28:49;;;;;;;15.70;10.60;;;;;;;;;;5056231;28;20186;-66
2024/01/07 05:31:19;;;;;;;20.47;15.13;;;;;;;;;;5037821;28;20178;-67
2024/01/07 05:33:45;;;;;;;21.77;15.57;;;;;;;;;;5055997;28;20644;-65
2024/01/07 05:36:12;;;;;;;24.33;17.50;;;;;;;;;;5055892;28;20529;-68
2024/01/07 05:38:38;;;;;;;20.53;15.10;;;;;;;;;;5055501;28;20424;-65
2024/01/07 05:41:04;;;;;;;21.47;15.40;;;;;;;;;;5055272;28;20488;-66
2024/01/07 05:43:30;;;;;;;21.67;15.60;;;;;;;;;;5037560;28;20417;-66
2024/01/07 05:45:56;;;;;;;19.33;13.97;;;;;;;;;;5055394;28;20571;-67
2024/01/07 05:48:22;;;;;;;21.77;16.17;;;;;;;;;;5055400;28;20183;-66
2024/01/07 05:50:48;;;;;;;19.43;13.23;;;;;;;;;;5055322;28;20198;-67
2024/01/07 05:53:15;;;;;;;19.20;14.43;;;;;;;;;;5037073;28;20496;-66
2024/01/07 05:55:41;;;;;;;18.77;14.60;;;;;;;;;;5037302;28;20947;-66
2024/01/07 05:58:07;;;;;;;20.97;15.00;;;;;;;;;;5037601;28;20416;-66
2024/01/07 06:00:32;;;;;;;25.87;17.33;;;;;;;;;;5037330;28;20281;-65
2024/01/07 06:02:59;;;;;;;21.50;15.63;;;;;;;;;;5037063;28;20182;-65
2024/01/07 06:05:24;;;;;;;22.90;16.07;;;;;;;;;;5037174;28;20203;-65
2024/01/07 06:07:50;;;;;;;21.77;15.60;;;;;;;;;;5055394;28;20417;-66
2024/01/07 06:10:19;;;;;;;21.60;14.77;;;;;;;;;;5037521;28;20677;-64
2024/01/07 06:12:45;;;;;;;19.87;15.20;;;;;;;;;;5037775;28;20213;-65
2024/01/07 06:15:11;;;;;;;16.70;11.50;;;;;;;;;;5055014;28;20491;-65
2024/01/07 06:17:36;;;;;;;21.70;15.33;;;;;;;;;;5037072;28;20181;-64
2024/01/07 06:20:03;;;;;;;19.23;13.40;;;;;;;;;;5055097;28;20185;-65
2024/01/07 06:22:28;;;;;;;21.93;14.43;;;;;;;;;;5054830;28;20175;-64
2024/01/07 06:24:54;;;;;;;20.17;15.07;;;;;;;;;;5054440;28;20430;-65
2024/01/07 06:27:20;;;;;;;22.77;16.60;;;;;;;;;;5036549;28;20190;-65
2024/01/07 06:29:46;;;;;;;21.47;15.43;;;;;;;;;;5056744;28;20202;-65
2024/01/07 06:32:14;;;;;;;23.07;15.63;;;;;;;;;;5037502;28;20269;-65
2024/01/07 06:34:40;;;;;;;21.23;16.23;;;;;;;;;;5054785;28;20182;-64
2024/01/07 06:37:07;;;;;;;24.37;16.83;;;;;;;;;;5036725;28;20428;-65
2024/01/07 06:39:34;;;;;;;21.50;15.67;;;;;;;;;;5036304;28;20209;-65
2024/01/07 06:42:00;;;;;;;23.37;16.13;;;;;;;;;;5036708;28;20941;-66
2024/01/07 06:44:26;;;;;;;22.27;16.80;;;;;;;;;;5035992;28;20453;-66
2024/01/07 06:46:52;;;;;;;24.13;17.10;;;;;;;;;;5036055;28;20441;-67
2024/01/07 06:49:18;;;;;;;20.93;13.93;;;;;;;;;;5035883;28;20206;-66
2024/01/07 06:51:44;;;;;;;23.60;15.97;;;;;;;;;;5054478;28;20413;-67
2024/01/07 06:54:10;;;;;;;20.17;14.67;;;;;;;;;;5035964;28;20181;-64
2024/01/07 06:56:36;;;;;;;22.10;16.33;;;;;;;;;;5053685;28;20265;-66
2024/01/07 06:59:02;;;;;;;24.70;16.87;;;;;;;;;;5054043;28;20182;-66
2024/01/07 07:01:28;;;;;;;23.17;15.87;;;;;;;;;;5054474;28;20606;-66
2024/01/07 07:03:54;;;;;;;19.60;14.80;;;;;;;;;;5053743;28;20925;-65
2024/01/07 07:06:20;;;;;;;21.67;15.97;;;;;;;;;;5053960;28;20202;-66
2024/01/07 07:08:46;;;;;;;19.90;14.13;;;;;;;;;;5053550;28;20265;-66
2024/01/07 07:11:12;;;;;;;18.73;14.00;;;;;;;;;;5053260;28;20174;-66
2024/01/07 07:13:38;;;;;;;21.00;13.30;;;;;;;;;;5053625;28;20463;-65
2024/01/07 07:16:04;;;;;;;21.60;16.10;;;;;;;;;;5035580;28;20240;-66
2024/01/07 07:18:30;;;;;;;21.50;15.50;;;;;;;;;;5053927;28;20205;-65
2024/01/07 07:20:56;;;;;;;21.80;15.97;;;;;;;;;;5035455;28;20420;-65
2024/01/07 07:23:22;;;;;;;21.73;15.07;;;;;;;;;;5053483;28;20239;-65
2024/01/07 07:25:48;;;;;;;20.17;15.03;;;;;;;;;;5053823;28;20217;-66
2024/01/07 07:28:14;;;;;;;12.63;10.03;;;;;;;;;;5035771;28;20595;-67
2024/01/07 07:30:40;;;;;;;18.90;13.20;;;;;;;;;;5053941;28;20531;-65
2024/01/07 07:33:06;;;;;;;19.60;14.10;;;;;;;;;;5053621;28;20186;-66
2024/01/07 07:35:32;;;;;;;15.67;11.30;;;;;;;;;;5035455;28;20213;-65
2024/01/07 07:37:58;;;;;;;16.87;12.67;;;;;;;;;;5053124;28;20190;-66
2024/01/07 07:40:24;;;;;;;25.03;16.33;;;;;;;;;;5053379;28;20214;-66
2024/01/07 07:42:50;;;;;;;20.63;13.40;;;;;;;;;;5053971;28;20182;-65
2024/01/07 07:45:16;;;;;;;19.50;14.67;;;;;;;;;;5035512;28;20202;-65
2024/01/07 07:47:44;;;;;;;19.07;14.43;;;;;;;;;;5035184;28;20424;-66
2024/01/07 07:50:10;;;;;;;20.40;15.20;;;;;;;;;;5052958;28;20479;-65
2024/01/07 07:52:36;;;;;;;19.90;13.17;;;;;;;;;;5034905;28;20803;-65
2024/01/07 07:55:02;;;;;;;19.43;14.73;;;;;;;;;;5053095;28;20424;-65
2024/01/07 07:57:28;;;;;;;15.83;11.40;;;;;;;;;;5053065;28;20166;-66
2024/01/07 07:59:55;;;;;;;18.80;13.60;;;;;;;;;;5053268;28;20197;-65
2024/01/07 08:02:21;;;;;;;20.40;14.63;;;;;;;;;;5053553;28;20182;-65
2024/01/07 08:04:48;;;;;;;19.17;14.57;;;;;;;;;;5035615;28;20467;-66
2024/01/07 08:07:14;;;;;;;19.10;14.37;;;;;;;;;;5053430;28;20409;-66
2024/01/07 08:09:40;;;;;;;20.13;13.70;;;;;;;;;;5053163;28;20461;-66
2024/01/07 08:12:06;;;;;;;19.33;13.60;;;;;;;;;;5053803;28;20186;-65
2024/01/07 08:14:32;;;;;;;18.43;12.57;;;;;;;;;;5034791;28;20508;-65
2024/01/07 08:16:58;;;;;;;20.97;14.43;;;;;;;;;;5035359;28;20432;-65
2024/01/07 08:19:24;;;;;;;18.17;15.48;;;;;;;;;;5033731;28;20435;-66
2024/01/07 08:21:50;;;;;;;19.50;13.37;;;;;;;;;;5052910;28;20174;-66
2024/01/07 08:24:16;;;;;;;18.17;13.10;;;;;;;;;;5054681;28;20592;-64
2024/01/07 08:26:42;;;;;;;15.03;10.40;;;;;;;;;;5038777;28;20226;-66
2024/01/07 08:29:08;;;;;;;10.73;8.67;;;;;;;;;;5056541;28;20255;-65
2024/01/07 08:31:34;;;;;;;15.43;11.30;;;;;;;;;;5057150;28;20182;-64
2024/01/07 08:34:00;;;;;;;13.27;10.07;;;;;;;;;;5056852;28;20412;-67
2024/01/07 08:36:26;;;;;;;17.67;13.70;;;;;;;;;;5056778;28;20807;-66
2024/01/07 08:38:52;;;;;;;17.53;12.67;;;;;;;;;;5056579;28;20958;-65
2024/01/07 08:41:18;;;;;;;20.03;14.60;;;;;;;;;;5056298;28;20641;-66
2024/01/07 08:43:45;;;;;;;18.53;12.50;;;;;;;;;;5056686;28;20185;-65
2024/01/07 08:46:11;;;;;;;17.10;13.03;;;;;;;;;;5058479;28;20461;-65
2024/01/07 08:48:38;;;;;;;17.80;13.20;;;;;;;;;;5039428;28;20420;-65
2024/01/07 08:51:04;;;;;;;17.23;12.00;;;;;;;;;;5057053;28;21043;-65
2024/01/07 08:53:30;;;;;;;17.87;11.27;;;;;;;;;;5056687;28;20440;-65
2024/01/07 08:55:56;;;;;;;17.23;12.13;;;;;;;;;;5038757;28;20437;-65
2024/01/07 08:58:22;;;;;;;15.90;10.93;;;;;;;;;;5057263;28;20569;-65
2024/01/07 09:00:48;;;;;;;15.23;11.20;;;;;;;;;;5058241;28;20552;-65
2024/01/07 09:03:14;;;;;;;19.70;14.07;;;;;;;;;;5057074;28;20595;-65
2024/01/07 09:05:40;;;;;;;17.63;11.10;;;;;;;;;;5040126;28;20554;-66
2024/01/07 09:08:06;;;;;;;14.67;10.90;;;;;;;;;;5043183;28;20663;-66
2024/01/07 09:10:33;;;;;;;15.63;12.50;;;;;;;;;;5039652;28;20714;-65
2024/01/07 09:12:59;;;;;;;15.70;12.90;;;;;;;;;;5057916;28;20892;-65
2024/01/07 09:15:25;;;;;;;16.83;12.00;;;;;;;;;;5058213;28;20425;-65
2024/01/07 09:17:51;;;;;;;18.37;13.10;;;;;;;;;;5037790;28;20267;-65
2024/01/07 09:20:18;;;;;;;15.03;9.83;;;;;;;;;;5056179;28;20941;-64
2024/01/07 09:22:43;;;;;;;20.33;13.77;;;;;;;;;;5038127;28;20907;-65
2024/01/07 09:25:10;;;;;;;20.25;15.95;;;;;;;;;;5036239;28;20458;-65
2024/01/07 09:27:36;;;;;;;17.08;14.55;;;;;;;;;;5054847;28;20432;-66
2024/01/07 09:30:02;;;;;;;17.42;13.60;;;;;;;;;;5055386;28;20467;-65
2024/01/07 09:32:28;;;;;;;14.77;10.97;;;;;;;;;;5040034;23;20467;-70
2024/01/07 09:34:54;;;;;;;15.93;12.73;;;;;;;;;;5017275;28;20381;-70
2024/01/07 09:37:20;;;;;;;14.35;11.35;;;;;;;;;;5016308;28;20863;-70
2024/01/07 09:39:46;;;;;;;17.90;11.63;;;;;;;;;;5018643;28;20188;-70
2024/01/07 09:42:13;;;;;;;18.07;12.27;;;;;;;;;;5026899;28;20273;-71
2024/01/07 09:44:39;;;;;;;20.47;14.87;;;;;;;;;;5034632;28;20415;-70
2024/01/07 09:47:15;;;;;;;21.67;15.00;;;;;;;;;;5026897;28;20191;-70
2024/01/07 09:49:42;;;;;;;18.93;14.17;;;;;;;;;;5030185;28;20281;-70
2024/01/07 09:52:12;;;;;;;15.80;12.03;;;;;;;;;;5017354;28;20437;-70
2024/01/07 09:54:38;;;;;;;10.03;7.47;;;;;;;;;;5023802;28;20935;-70
2024/01/07 09:57:07;;;;;;;12.07;8.67;;;;;;;;;;5017594;28;20407;-70
2024/01/07 09:59:34;;;;;;;9.87;7.83;;;;;;;;;;5016935;28;20846;-69
2024/01/07 10:02:00;;;;;;;10.13;6.53;;;;;;;;;;5018046;28;20431;-70
2024/01/07 10:04:33;;;;;;;11.43;8.33;;;;;;;;;;5017251;28;20419;-70
2024/01/07 10:06:59;;;;;;;11.20;8.93;;;;;;;;;;5015967;28;20430;-71
2024/01/07 10:09:33;;;;;;;8.93;7.17;;;;;;;;;;5015850;28;20845;-69
2024/01/07 10:11:59;;;;;;;8.53;6.47;;;;;;;;;;5017991;28;20430;-70
2024/01/07 10:14:26;;;;;;;10.77;5.83;;;;;;;;;;5017321;28;20494;-69
2024/01/07 10:16:52;;;;;;;7.80;6.03;;;;;;;;;;5033005;28;20419;-70
2024/01/07 10:19:24;;;;;;;9.17;5.70;;;;;;;;;;5033220;28;20422;-70
2024/01/07 10:22:01;;;;;;;8.10;6.27;;;;;;;;;;5034066;28;20427;-70
2024/01/07 10:24:26;;;;;;;10.63;6.23;;;;;;;;;;5018861;28;20411;-70
2024/01/07 10:26:52;;;;;;;11.03;6.60;;;;;;;;;;5016841;28;20833;-70
2024/01/07 10:29:20;;;;;;;8.17;7.00;;;;;;;;;;5017078;28;20204;-69
2024/01/07 10:31:46;;;;;;;8.07;6.33;;;;;;;;;;5016512;28;20207;-70
2024/01/07 10:34:13;;;;;;;8.87;6.20;;;;;;;;;;5015136;28;20434;-70
2024/01/07 10:36:40;;;;;;;10.90;7.80;;;;;;;;;;5015628;28;20418;-70
2024/01/07 10:39:06;;;;;;;8.43;6.67;;;;;;;;;;5017526;28;20419;-70
2024/01/07 10:41:34;;;;;;;11.30;7.73;;;;;;;;;;5016922;28;21003;-70
2024/01/07 10:44:00;;;;;;;11.10;7.13;;;;;;;;;;5018737;28;20411;-70
2024/01/07 10:46:26;;;;;;;7.13;4.27;;;;;;;;;;5015261;28;20921;-70
2024/01/07 10:48:56;;;;;;;11.47;7.87;;;;;;;;;;5015139;28;20190;-70
2024/01/07 10:51:22;;;;;;;9.00;6.23;;;;;;;;;;5015298;28;20914;-69
2024/01/07 10:53:56;;;;;;;12.17;7.67;;;;;;;;;;5016590;28;20418;-70
2024/01/07 10:56:29;;;;;;;9.47;7.23;;;;;;;;;;5016009;28;20168;-70
2024/01/07 10:58:56;;;;;;;9.20;6.53;;;;;;;;;;5014788;28;20948;-70
2024/01/07 11:01:22;;;;;;;8.93;6.47;;;;;;;;;;5014736;28;20442;-70
2024/01/07 11:03:51;;;;;;;10.70;7.53;;;;;;;;;;5013178;28;20385;-70
2024/01/07 11:06:20;;;;;;;10.43;7.43;;;;;;;;;;5013545;28;20397;-71
2024/01/07 11:08:51;;;;;;;9.00;7.30;;;;;;;;;;5014813;28;20851;-70
2024/01/07 11:11:21;;;;;;;9.15;6.88;;;;;;;;;;5012872;28;20400;-69
2024/01/07 11:13:46;;;;;;;8.13;5.80;;;;;;;;;;5014516;28;20322;-70
2024/01/07 11:16:12;;;;;;;10.07;5.20;;;;;;;;;;5014353;28;20658;-70
2024/01/07 11:18:51;;;;;;;8.03;6.00;;;;;;;;;;5015320;28;20551;-70
2024/01/07 11:21:26;;;;;;;6.10;5.30;;;;;;;;;;5015591;28;20697;-72
2024/01/07 11:23:53;;;;;;;7.10;4.97;;;;;;;;;;5014176;28;20464;-70
2024/01/07 11:26:19;;;;;;;7.83;6.03;;;;;;;;;;5014261;28;20423;-70
2024/01/07 11:28:48;;;;;;;4.77;4.27;;;;;;;;;;5016002;28;20786;-71
2024/01/07 11:31:15;;;;;;;5.57;3.23;;;;;;;;;;5015768;28;20467;-72
2024/01/07 11:33:45;;;;;;;5.67;3.53;;;;;;;;;;5017522;28;20772;-73
2024/01/07 11:36:13;;;;;;;4.80;4.27;;;;;;;;;;5017707;28;20902;-72
2024/01/07 11:38:41;;;;;;;5.73;4.63;;;;;;;;;;5017194;28;20434;-72
2024/01/07 11:41:08;;;;;;;5.00;4.30;;;;;;;;;;5017435;28;20843;-72
2024/01/07 11:43:34;;;;;;;5.47;4.00;;;;;;;;;;5017940;28;20480;-70
2024/01/07 11:46:00;;;;;;;5.73;4.43;;;;;;;;;;5018067;28;20474;-71
2024/01/07 11:48:27;;;;;;;6.47;3.23;;;;;;;;;;5015817;28;20207;-71
2024/01/07 11:50:53;;;;;;;8.97;4.73;;;;;;;;;;5016057;28;20462;-70
2024/01/07 11:53:19;;;;;;;6.57;4.80;;;;;;;;;;5022328;28;20461;-70
2024/01/07 11:55:45;;;;;;;6.90;4.63;;;;;;;;;;5017410;28;20190;-70
2024/01/07 11:58:11;;;;;;;7.83;5.20;;;;;;;;;;5021323;28;20427;-71
2024/01/07 12:00:37;;;;;;;5.37;4.60;;;;;;;;;;5030311;28;20407;-70
2024/01/07 12:03:04;;;;;;;6.70;5.50;;;;;;;;;;5026925;28;20180;-70
2024/01/07 12:05:30;;;;;;;5.60;5.00;;;;;;;;;;5026591;28;20184;-70
2024/01/07 12:07:56;;;;;;;5.80;3.07;;;;;;;;;;5016988;28;20897;-71
2024/01/07 12:10:23;;;;;;;6.93;3.97;;;;;;;;;;5014827;28;20470;-70
2024/01/07 12:12:50;;;;;;;4.33;3.63;;;;;;;;;;5014991;28;20427;-70
2024/01/07 12:15:17;;;;;;;5.87;4.90;;;;;;;;;;5015199;28;20415;-72
2024/01/07 12:17:42;;;;;;;6.17;4.07;;;;;;;;;;5016384;28;20450;-70
2024/01/07 12:20:09;;;;;;;5.87;4.03;;;;;;;;;;5015011;28;20419;-71
2024/01/07 12:22:38;;;;;;;5.40;3.47;;;;;;;;;;5015086;28;20211;-71
2024/01/07 12:25:06;;;;;;;4.83;3.83;;;;;;;;;;5017008;28;20500;-72
2024/01/07 12:27:32;;;;;;;4.07;3.30;;;;;;;;;;5015428;28;20851;-72
2024/01/07 12:29:58;;;;;;;4.23;3.13;;;;;;;;;;5017911;28;20462;-71
2024/01/07 12:32:28;;;;;;;4.60;3.20;;;;;;;;;;5018030;28;20483;-70
2024/01/07 12:34:54;;;;;;;5.83;3.80;;;;;;;;;;5017991;28;20414;-72
2024/01/07 12:37:20;;;;;;;7.40;3.73;;;;;;;;;;5015755;28;20407;-72
2024/01/07 12:39:46;;;;;;;4.83;3.80;;;;;;;;;;5015248;28;20554;-68
2024/01/07 12:42:13;;;;;;;7.03;3.43;;;;;;;;;;5014668;28;20227;-70
2024/01/07 12:44:39;;;;;;;4.23;3.40;;;;;;;;;;5015703;28;20482;-70
2024/01/07 12:47:05;;;;;;;2.40;2.20;;;;;;;;;;5015415;28;20411;-70
2024/01/07 12:49:31;;;;;;;5.17;3.80;;;;;;;;;;5015136;28;20473;-70
2024/01/07 12:51:57;;;;;;;5.73;3.90;;;;;;;;;;5014518;28;20453;-70
2024/01/07 12:54:24;;;;;;;7.40;4.80;;;;;;;;;;5014973;28;20411;-70
2024/01/07 12:56:51;;;;;;;5.77;4.33;;;;;;;;;;5014552;28;20592;-72
2024/01/07 12:59:17;;;;;;;7.30;4.73;;;;;;;;;;5014852;28;20415;-71
2024/01/07 13:01:43;;;;;;;6.50;4.10;;;;;;;;;;5012935;28;20817;-71
2024/01/07 13:04:09;;;;;;;3.37;3.00;;;;;;;;;;5012889;28;20211;-71
2024/01/07 13:06:35;;;;;;;9.50;4.60;;;;;;;;;;5013103;28;20282;-71
2024/01/07 13:09:03;;;;;;;8.00;4.97;;;;;;;;;;5012886;28;20235;-71
2024/01/07 13:11:29;;;;;;;6.33;4.23;;;;;;;;;;5017663;28;20426;-71
2024/01/07 13:13:59;;;;;;;5.50;4.63;;;;;;;;;;5017833;28;20422;-71
2024/01/07 13:16:26;;;;;;;6.53;5.40;;;;;;;;;;5016478;28;20243;-71
2024/01/07 13:18:52;;;;;;;5.70;4.00;;;;;;;;;;5017758;28;20422;-70
2024/01/07 13:21:18;;;;;;;4.83;3.50;;;;;;;;;;5018334;28;20430;-70
2024/01/07 13:23:44;;;;;;;3.87;2.90;;;;;;;;;;5017502;28;20204;-70
2024/01/07 13:26:13;;;;;;;3.77;3.20;;;;;;;;;;5018049;28;20271;-70
2024/01/07 13:28:39;;;;;;;2.40;2.20;;;;;;;;;;5017794;28;20426;-70
2024/01/07 13:31:06;;;;;;;3.43;3.10;;;;;;;;;;5019278;28;20474;-70
2024/01/07 13:33:32;;;;;;;4.40;3.60;;;;;;;;;;5019800;28;20164;-71
2024/01/07 13:35:58;;;;;;;6.10;3.10;;;;;;;;;;5019161;28;20418;-70
2024/01/07 13:38:24;;;;;;;3.23;2.33;;;;;;;;;;5019088;28;20403;-71
2024/01/07 13:40:50;;;;;;;4.00;2.90;;;;;;;;;;5018315;28;20777;-72
2024/01/07 13:43:16;;;;;;;3.23;2.67;;;;;;;;;;5017198;28;20422;-71
2024/01/07 13:45:42;;;;;;;3.93;3.07;;;;;;;;;;5016329;28;20442;-70
2024/01/07 13:48:09;;;;;;;3.33;2.53;;;;;;;;;;5018351;28;20186;-71
2024/01/07 13:50:35;;;;;;;3.40;2.93;;;;;;;;;;5018527;28;20466;-70
2024/01/07 13:53:02;;;;;;;3.40;3.10;;;;;;;;;;5017646;28;20503;-70
2024/01/07 13:55:28;;;;;;;3.03;2.70;;;;;;;;;;5017509;28;20908;-70
2024/01/07 13:57:54;;;;;;;3.20;2.57;;;;;;;;;;5016751;28;20419;-69
2024/01/07 14:00:20;;;;;;;3.60;3.10;;;;;;;;;;5017490;28;20518;-70
2024/01/07 14:02:46;;;;;;;4.80;3.47;;;;;;;;;;5017237;28;20204;-70
2024/01/07 14:05:12;;;;;;;5.60;2.70;;;;;;;;;;5017626;28;21014;-69
2024/01/07 14:07:38;;;;;;;5.83;3.10;;;;;;;;;;5016125;28;20469;-69
2024/01/07 14:10:05;;;;;;;2.53;2.33;;;;;;;;;;5017197;28;20507;-70
2024/01/07 14:12:31;;;;;;;2.37;2.10;;;;;;;;;;5017063;28;20450;-70
2024/01/07 14:14:58;;;;;;;3.17;2.40;;;;;;;;;;5017003;28;20417;-71
2024/01/07 14:17:24;;;;;;;3.83;3.07;;;;;;;;;;5016969;28;20187;-70
2024/01/07 14:19:52;;;;;;;4.57;3.00;;;;;;;;;;5016327;28;20411;-71